createdAt,value
2022-12-28T00:01:19.516Z,6.97
2022-12-28T00:03:46.274Z,6.18
2022-12-28T00:06:13.272Z,7.15
2022-12-28T00:08:40.775Z,11.02
2022-12-28T00:11:12.264Z,9.10
2022-12-28T00:13:45.578Z,5.97
2022-12-28T00:16:27.367Z,7.32
2022-12-28T00:18:55.487Z,7.40
2022-12-28T00:21:22.274Z,7.68
2022-12-28T00:23:52.874Z,6.45
2022-12-28T00:26:19.831Z,7.75
2022-12-28T00:28:47.074Z,6.78
2022-12-28T00:31:14.106Z,5.88
2022-12-28T00:33:41.059Z,6.28
2022-12-28T00:36:08.054Z,6.18
2022-12-28T00:38:35.292Z,8.80
2022-12-28T00:41:02.006Z,9.07
2022-12-28T00:43:28.937Z,9.30
2022-12-28T00:45:55.719Z,8.68
2022-12-28T00:48:22.495Z,6.10
2022-12-28T00:50:49.250Z,9.25
2022-12-28T00:53:16.017Z,6.10
2022-12-28T00:55:42.735Z,4.32
2022-12-28T00:58:09.598Z,7.35
2022-12-28T01:00:36.828Z,8.07
2022-12-28T01:03:03.818Z,7.72
2022-12-28T01:05:30.760Z,14.85
2022-12-28T01:07:57.479Z,10.93
2022-12-28T01:10:24.200Z,8.88
2022-12-28T01:12:50.909Z,7.38
2022-12-28T01:15:17.668Z,8.93
2022-12-28T01:17:44.484Z,6.50
2022-12-28T01:20:11.464Z,6.13
2022-12-28T01:22:38.208Z,6.47
2022-12-28T01:25:05.253Z,6.70
2022-12-28T01:27:32.578Z,5.95
2022-12-28T01:29:59.284Z,4.18
2022-12-28T01:32:25.988Z,5.53
2022-12-28T01:34:52.682Z,5.20
2022-12-28T01:37:19.415Z,6.07
2022-12-28T01:39:46.136Z,5.63
2022-12-28T01:42:17.265Z,5.65
2022-12-28T01:44:46.056Z,4.55
2022-12-28T01:47:15.057Z,6.13
2022-12-28T01:50:02.704Z,7.50
2022-12-28T01:52:41.515Z,3.13
2022-12-28T01:55:29.959Z,2.72
2022-12-28T01:58:05.709Z,5.22
2022-12-28T02:00:32.432Z,5.13
2022-12-28T02:03:04.882Z,5.07
2022-12-28T02:05:33.940Z,4.90
2022-12-28T02:08:28.622Z,3.53
2022-12-28T02:10:55.403Z,3.17
2022-12-28T02:13:22.933Z,2.63
2022-12-28T02:15:49.761Z,4.35
2022-12-28T02:18:17.063Z,2.67
2022-12-28T02:21:04.808Z,7.65
2022-12-28T02:24:00.458Z,8.52
2022-12-28T02:26:51.579Z,5.93
2022-12-28T02:29:40.636Z,3.80
2022-12-28T02:32:45.404Z,3.63
2022-12-28T02:35:30.688Z,5.28
2022-12-28T02:38:06.587Z,5.97
2022-12-28T02:40:37.822Z,3.50
2022-12-28T02:43:04.575Z,3.00
2022-12-28T02:46:05.582Z,3.53
2022-12-28T02:49:01.602Z,4.45
2022-12-28T02:51:46.919Z,5.50
2022-12-28T02:54:36.368Z,2.88
2022-12-28T02:57:11.712Z,5.55
2022-12-28T02:59:45.056Z,3.72
2022-12-28T03:02:27.041Z,2.78
2022-12-28T03:05:18.992Z,6.63
2022-12-28T03:08:20.209Z,2.88
2022-12-28T03:11:00.244Z,4.30
2022-12-28T03:13:45.077Z,2.97
2022-12-28T03:16:22.248Z,4.90
2022-12-28T03:19:21.238Z,2.30
2022-12-28T03:22:06.664Z,2.65
2022-12-28T03:24:52.347Z,3.00
2022-12-28T03:27:37.411Z,3.20
2022-12-28T03:30:25.367Z,3.38
2022-12-28T03:32:52.042Z,2.25
2022-12-28T03:35:19.544Z,4.07
2022-12-28T03:38:06.535Z,2.58
2022-12-28T03:40:49.712Z,3.03
2022-12-28T03:43:39.556Z,4.32
2022-12-28T03:46:09.155Z,3.05
2022-12-28T03:48:37.524Z,2.95
2022-12-28T03:51:04.409Z,4.70
2022-12-28T03:53:45.174Z,3.58
2022-12-28T03:56:16.716Z,4.50
2022-12-28T03:58:43.609Z,4.45
2022-12-28T04:01:10.624Z,3.95
2022-12-28T04:03:37.497Z,3.05
2022-12-28T04:06:04.469Z,2.97
2022-12-28T04:08:31.895Z,2.45
2022-12-28T04:10:59.476Z,2.78
2022-12-28T04:13:29.638Z,5.30
2022-12-28T04:16:01.194Z,4.75
2022-12-28T04:18:27.979Z,6.43
2022-12-28T04:20:54.671Z,4.15
2022-12-28T04:23:21.436Z,3.30
2022-12-28T04:26:05.099Z,5.00
2022-12-28T04:28:32.162Z,5.65
2022-12-28T04:30:59.256Z,3.55
2022-12-28T04:33:26.166Z,4.00
2022-12-28T04:35:53.114Z,5.78
2022-12-28T04:38:20.288Z,4.20
2022-12-28T04:40:47.177Z,4.25
2022-12-28T04:43:13.873Z,4.07
2022-12-28T04:45:40.610Z,4.88
2022-12-28T04:48:07.339Z,5.88
2022-12-28T04:50:34.025Z,6.53
2022-12-28T04:53:00.738Z,8.90
2022-12-28T04:55:31.984Z,5.85
2022-12-28T04:58:00.764Z,5.38
2022-12-28T05:00:27.651Z,5.20
2022-12-28T05:02:54.495Z,12.48
2022-12-28T05:05:21.294Z,5.10
2022-12-28T05:07:48.071Z,8.25
2022-12-28T05:10:14.935Z,4.90
2022-12-28T05:12:41.712Z,5.05
2022-12-28T05:15:08.759Z,5.78
2022-12-28T05:17:35.577Z,5.60
2022-12-28T05:20:03.164Z,7.60
2022-12-28T05:22:29.900Z,6.30
2022-12-28T05:24:56.717Z,5.32
2022-12-28T05:27:23.469Z,7.40
2022-12-28T05:29:50.218Z,6.20
2022-12-28T05:32:16.889Z,7.15
2022-12-28T05:34:43.611Z,5.15
2022-12-28T05:37:11.972Z,6.60
2022-12-28T05:39:41.166Z,6.10
2022-12-28T05:42:07.895Z,6.43
2022-12-28T05:44:34.660Z,6.45
2022-12-28T05:47:01.516Z,9.18
2022-12-28T05:49:28.325Z,4.18
2022-12-28T05:51:55.045Z,6.13
2022-12-28T05:54:21.766Z,4.70
2022-12-28T05:56:50.841Z,6.57
2022-12-28T05:59:17.588Z,4.55
2022-12-28T06:01:44.574Z,6.60
2022-12-28T06:04:17.918Z,6.10
2022-12-28T06:06:45.765Z,6.25
2022-12-28T06:09:12.795Z,9.63
2022-12-28T06:11:39.666Z,6.55
2022-12-28T06:14:06.459Z,5.75
2022-12-28T06:16:36.912Z,5.43
2022-12-28T06:19:05.499Z,6.82
2022-12-28T06:21:33.049Z,7.90
2022-12-28T06:24:00.217Z,6.35
2022-12-28T06:26:29.091Z,6.88
2022-12-28T06:28:56.055Z,7.97
2022-12-28T06:31:24.515Z,8.93
2022-12-28T06:33:56.188Z,5.90
2022-12-28T06:36:36.759Z,6.30
2022-12-28T06:39:04.962Z,6.18
2022-12-28T06:41:31.742Z,6.68
2022-12-28T06:43:58.795Z,4.55
2022-12-28T06:46:27.458Z,8.75
2022-12-28T06:48:54.230Z,5.35
2022-12-28T06:51:23.301Z,6.57
2022-12-28T06:53:50.575Z,7.30
2022-12-28T06:56:25.475Z,6.38
2022-12-28T06:58:55.712Z,9.82
2022-12-28T07:01:31.261Z,8.70
2022-12-28T07:04:02.382Z,8.38
2022-12-28T07:06:36.154Z,8.65
2022-12-28T07:09:04.345Z,10.52
2022-12-28T07:11:31.129Z,6.88
2022-12-28T07:13:57.989Z,10.13
2022-12-28T07:16:25.384Z,10.25
2022-12-28T07:18:52.538Z,7.22
2022-12-28T07:21:21.538Z,6.95
2022-12-28T07:23:49.158Z,10.82
2022-12-28T07:26:17.750Z,6.78
2022-12-28T07:28:45.403Z,9.82
2022-12-28T07:31:22.830Z,7.90
2022-12-28T07:33:50.502Z,11.48
2022-12-28T07:36:18.220Z,7.70
2022-12-28T07:38:45.097Z,7.57
2022-12-28T07:41:15.965Z,9.13
2022-12-28T07:43:42.760Z,9.90
2022-12-28T07:46:14.186Z,7.97
2022-12-28T07:48:41.273Z,10.25
2022-12-28T07:51:15.005Z,9.43
2022-12-28T07:53:42.525Z,13.77
2022-12-28T07:56:09.395Z,8.32
2022-12-28T07:58:36.276Z,13.13
2022-12-28T08:01:13.849Z,12.70
2022-12-28T08:03:40.965Z,12.55
2022-12-28T08:06:34.651Z,9.05
2022-12-28T08:09:01.703Z,10.55
2022-12-28T08:11:30.175Z,10.05
2022-12-28T08:13:57.103Z,8.38
2022-12-28T08:16:25.104Z,11.60
2022-12-28T08:18:51.865Z,7.93
2022-12-28T08:21:21.092Z,11.65
2022-12-28T08:23:48.109Z,11.27
2022-12-28T08:26:15.780Z,12.25
2022-12-28T08:28:43.219Z,12.80
2022-12-28T08:31:12.270Z,8.50
2022-12-28T08:33:39.120Z,11.63
2022-12-28T08:36:06.426Z,10.25
2022-12-28T08:38:33.304Z,13.27
2022-12-28T08:41:01.489Z,10.63
2022-12-28T08:43:28.575Z,8.90
2022-12-28T08:46:02.221Z,10.48
2022-12-28T08:48:29.439Z,17.17
2022-12-28T08:50:58.314Z,14.98
2022-12-28T08:53:25.113Z,13.85
2022-12-28T08:55:51.884Z,9.57
2022-12-28T08:58:18.954Z,14.18
2022-12-28T09:00:45.745Z,13.10
2022-12-28T09:03:12.603Z,15.02
2022-12-28T09:05:40.053Z,16.60
2022-12-28T09:08:06.816Z,15.63
2022-12-28T09:10:33.517Z,15.95
2022-12-28T09:13:00.352Z,16.25
2022-12-28T09:15:27.072Z,16.33
2022-12-28T09:17:53.831Z,17.70
2022-12-28T09:20:20.568Z,19.90
2022-12-28T09:22:47.280Z,20.17
2022-12-28T09:25:14.038Z,17.60
2022-12-28T09:27:41.229Z,16.38
2022-12-28T09:30:09.943Z,19.90
2022-12-28T09:32:36.714Z,16.20
2022-12-28T09:35:03.638Z,20.40
2022-12-28T09:37:30.359Z,13.65
2022-12-28T09:40:01.389Z,22.27
2022-12-28T09:42:28.983Z,24.63
2022-12-28T09:45:11.251Z,28.58
2022-12-28T09:47:38.793Z,19.17
2022-12-28T09:50:24.850Z,24.73
2022-12-28T09:53:20.315Z,21.75
2022-12-28T09:55:53.107Z,24.35
2022-12-28T09:58:19.889Z,21.23
2022-12-28T10:00:57.206Z,20.45
2022-12-28T10:03:35.973Z,17.88
2022-12-28T10:06:02.750Z,18.35
2022-12-28T10:08:29.965Z,23.98
2022-12-28T10:11:00.046Z,18.55
2022-12-28T10:13:53.731Z,15.32
2022-12-28T10:16:19.852Z,17.63
2022-12-28T10:18:47.327Z,20.77
2022-12-28T10:21:15.190Z,18.90
2022-12-28T10:24:04.606Z,17.05
2022-12-28T10:26:28.777Z,17.60
2022-12-28T10:28:58.485Z,16.75
2022-12-28T10:31:38.818Z,18.38
2022-12-28T10:34:17.670Z,18.27
2022-12-28T10:36:44.616Z,20.88
2022-12-28T10:39:39.144Z,16.02
2022-12-28T10:42:06.060Z,14.82
2022-12-28T10:44:41.717Z,17.83
2022-12-28T10:47:44.197Z,17.83
2022-12-28T10:50:41.951Z,20.27
2022-12-28T10:53:37.062Z,18.50
2022-12-28T10:56:05.257Z,18.58
2022-12-28T11:01:27.844Z,16.52
2022-12-28T11:03:22.200Z,13.80
2022-12-28T11:04:20.057Z,17.10
2022-12-28T11:07:02.820Z,19.95
2022-12-28T11:09:35.289Z,18.65
2022-12-28T11:12:24.992Z,18.50
2022-12-28T11:14:52.504Z,19.13
2022-12-28T11:17:26.552Z,19.00
2022-12-28T11:20:07.208Z,18.92
2022-12-28T11:22:33.955Z,17.73
2022-12-28T11:25:01.013Z,15.55
2022-12-28T11:27:27.832Z,15.93
2022-12-28T11:29:55.033Z,18.98
2022-12-28T11:32:27.466Z,19.63
2022-12-28T11:34:54.986Z,17.20
2022-12-28T11:37:21.831Z,21.48
2022-12-28T11:39:49.540Z,20.38
2022-12-28T11:42:52.626Z,23.08
2022-12-28T11:45:52.098Z,15.27
2022-12-28T11:48:38.256Z,17.40
2022-12-28T11:51:05.498Z,15.77
2022-12-28T11:53:35.241Z,19.85
2022-12-28T11:56:30.953Z,20.10
2022-12-28T11:59:03.624Z,24.10
2022-12-28T12:01:38.556Z,25.58
2022-12-28T12:04:05.286Z,21.80
2022-12-28T12:06:44.219Z,19.73
2022-12-28T12:09:25.800Z,28.27
2022-12-28T12:11:53.263Z,27.05
2022-12-28T12:14:28.598Z,26.73
2022-12-28T12:17:03.360Z,19.42
2022-12-28T12:19:32.123Z,24.05
2022-12-28T12:22:09.481Z,18.58
2022-12-28T12:24:41.229Z,19.88
2022-12-28T12:27:16.319Z,25.65
2022-12-28T12:29:49.312Z,25.42
2022-12-28T12:32:18.535Z,23.20
2022-12-28T12:35:00.250Z,22.95
2022-12-28T12:37:37.422Z,22.67
2022-12-28T12:40:09.993Z,20.65
2022-12-28T12:42:36.769Z,19.85
2022-12-28T12:45:35.887Z,23.48
2022-12-28T12:48:21.372Z,23.50
2022-12-28T12:51:06.664Z,22.15
2022-12-28T12:53:44.745Z,21.63
2022-12-28T12:56:29.608Z,21.48
2022-12-28T12:59:19.945Z,18.00
2022-12-28T13:02:12.591Z,19.45
2022-12-28T13:04:42.672Z,20.77
2022-12-28T13:07:18.125Z,18.38
2022-12-28T13:09:44.832Z,21.67
2022-12-28T13:12:17.987Z,21.75
2022-12-28T13:17:19.123Z,22.55
2022-12-28T13:19:46.318Z,25.58
2022-12-28T13:22:29.685Z,22.05
2022-12-28T13:27:23.247Z,24.50
2022-12-28T13:29:53.636Z,31.77
2022-12-28T13:32:30.398Z,29.58
2022-12-28T13:35:01.138Z,24.70
2022-12-28T13:37:28.117Z,24.02
2022-12-28T13:40:15.989Z,25.00
2022-12-28T13:42:57.776Z,30.33
2022-12-28T13:45:24.489Z,28.98
2022-12-28T13:47:51.448Z,20.10
2022-12-28T13:50:20.683Z,21.33
2022-12-28T13:53:05.016Z,24.10
2022-12-28T13:55:46.302Z,21.08
2022-12-28T13:58:17.151Z,20.83
2022-12-28T14:00:45.975Z,25.02
2022-12-28T14:03:12.706Z,21.55
2022-12-28T14:05:42.551Z,24.52
2022-12-28T14:08:09.306Z,23.25
2022-12-28T14:10:36.039Z,21.98
2022-12-28T14:13:04.701Z,20.27
2022-12-28T14:15:35.850Z,23.95
2022-12-28T14:18:07.521Z,22.23
2022-12-28T14:20:48.838Z,21.10
2022-12-28T14:23:29.912Z,19.48
2022-12-28T14:26:01.587Z,26.45
2022-12-28T14:28:39.820Z,22.00
2022-12-28T14:31:07.396Z,24.48
2022-12-28T14:33:51.062Z,23.95
2022-12-28T14:36:20.699Z,19.75
2022-12-28T14:38:48.696Z,28.25
2022-12-28T14:41:28.484Z,29.60
2022-12-28T14:43:57.025Z,31.23
2022-12-28T14:46:37.539Z,24.15
2022-12-28T14:49:35.227Z,27.90
2022-12-28T14:52:10.703Z,26.73
2022-12-28T14:54:50.103Z,26.42
2022-12-28T14:57:21.529Z,29.42
2022-12-28T14:59:58.099Z,26.80
2022-12-28T15:02:34.253Z,23.58
2022-12-28T15:05:01.872Z,25.83
2022-12-28T15:07:28.625Z,25.05
2022-12-28T15:09:55.409Z,27.02
2022-12-28T15:12:22.894Z,27.08
2022-12-28T15:14:49.979Z,27.00
2022-12-28T15:17:16.804Z,25.45
2022-12-28T15:19:45.227Z,25.20
2022-12-28T15:22:12.670Z,24.45
2022-12-28T15:24:41.407Z,26.10
2022-12-28T15:27:08.212Z,28.63
2022-12-28T15:32:21.883Z,29.27
2022-12-28T15:34:48.601Z,28.52
2022-12-28T15:37:15.323Z,26.70
2022-12-28T15:39:43.227Z,24.58
2022-12-28T15:42:09.932Z,33.22
2022-12-28T15:44:36.682Z,25.45
2022-12-28T15:47:03.488Z,32.67
2022-12-28T15:49:30.219Z,29.48
2022-12-28T15:51:57.045Z,30.15
2022-12-28T15:54:23.782Z,29.38
2022-12-28T15:56:54.225Z,32.85
2022-12-28T15:59:20.966Z,31.58
2022-12-28T16:01:48.319Z,29.42
2022-12-28T16:04:17.303Z,25.67
2022-12-28T16:06:45.187Z,32.47
2022-12-28T16:09:12.654Z,31.50
2022-12-28T16:11:39.405Z,32.55
2022-12-28T16:14:06.869Z,32.05
2022-12-28T16:16:38.269Z,30.90
2022-12-28T16:19:05.494Z,32.30
2022-12-28T16:21:32.361Z,33.10
2022-12-28T16:23:59.883Z,26.02
2022-12-28T16:26:27.227Z,32.60
2022-12-28T16:28:53.966Z,30.63
2022-12-28T16:31:24.446Z,25.77
2022-12-28T16:33:57.802Z,26.73
2022-12-28T16:36:24.895Z,29.92
2022-12-28T16:38:51.675Z,28.73
2022-12-28T16:41:18.533Z,25.65
2022-12-28T16:43:45.975Z,31.73
2022-12-28T16:46:12.877Z,24.60
2022-12-28T16:48:39.599Z,25.45
2022-12-28T16:51:06.561Z,26.60
2022-12-28T16:53:33.803Z,26.98
2022-12-28T16:56:01.301Z,26.65
2022-12-28T16:58:28.878Z,25.55
2022-12-28T17:00:55.869Z,30.58
2022-12-28T17:03:22.746Z,23.85
2022-12-28T17:05:50.376Z,28.95
2022-12-28T17:08:17.203Z,26.90
2022-12-28T17:10:44.044Z,26.00
2022-12-28T17:13:10.924Z,23.45
2022-12-28T17:15:40.867Z,24.23
2022-12-28T17:18:07.811Z,28.70
2022-12-28T17:20:37.856Z,24.98
2022-12-28T17:23:04.687Z,27.90
2022-12-28T17:25:32.297Z,28.48
2022-12-28T17:27:59.268Z,24.45
2022-12-28T17:30:26.611Z,23.35
2022-12-28T17:32:53.428Z,26.05
2022-12-28T17:35:20.195Z,24.90
2022-12-28T17:37:47.104Z,31.38
2022-12-28T17:40:13.820Z,23.52
2022-12-28T17:42:40.525Z,23.38
2022-12-28T17:45:11.648Z,29.52
2022-12-28T17:47:38.662Z,23.80
2022-12-28T17:50:09.078Z,26.67
2022-12-28T17:52:35.888Z,23.20
2022-12-28T17:55:03.577Z,19.95
2022-12-28T17:57:35.354Z,20.63
2022-12-28T18:00:06.578Z,25.90
2022-12-28T18:02:33.580Z,25.25
2022-12-28T18:05:00.484Z,26.65
2022-12-28T18:07:27.659Z,21.42
2022-12-28T18:09:54.397Z,25.80
2022-12-28T18:12:21.281Z,23.10
2022-12-28T18:14:48.021Z,30.13
2022-12-28T18:17:17.585Z,29.55
2022-12-28T18:19:44.441Z,24.58
2022-12-28T18:22:11.150Z,24.98
2022-12-28T18:24:37.929Z,28.27
2022-12-28T18:27:04.638Z,30.02
2022-12-28T18:29:31.392Z,32.58
2022-12-28T18:31:58.095Z,35.53
2022-12-28T18:34:25.002Z,35.55
2022-12-28T18:36:51.744Z,32.67
2022-12-28T18:39:18.622Z,30.55
2022-12-28T18:41:45.376Z,31.08
2022-12-28T18:44:12.189Z,31.95
2022-12-28T18:46:39.025Z,30.98
2022-12-28T18:49:05.763Z,34.63
2022-12-28T18:51:32.449Z,30.23
2022-12-28T18:53:59.207Z,28.85
2022-12-28T18:56:26.108Z,31.67
2022-12-28T18:58:54.289Z,29.50
2022-12-28T19:02:04.332Z,27.63
2022-12-28T19:04:10.406Z,31.20
2022-12-28T19:06:37.612Z,28.33
2022-12-28T19:09:04.766Z,41.22
2022-12-28T19:11:31.562Z,30.67
2022-12-28T19:13:58.268Z,31.10
2022-12-28T19:16:31.161Z,28.42
2022-12-28T19:18:59.139Z,34.42
2022-12-28T19:21:27.333Z,32.05
2022-12-28T19:23:56.912Z,30.55
2022-12-28T19:26:24.215Z,27.70
2022-12-28T19:28:51.216Z,32.50
2022-12-28T19:31:18.287Z,35.72
2022-12-28T19:33:45.264Z,34.20
2022-12-28T19:36:12.736Z,32.22
2022-12-28T19:38:39.577Z,34.88
2022-12-28T19:41:08.007Z,37.05
2022-12-28T19:43:34.885Z,32.03
2022-12-28T19:46:05.442Z,34.95
2022-12-28T19:48:32.260Z,31.95
2022-12-28T19:50:59.064Z,34.03
2022-12-28T19:53:26.809Z,31.15
2022-12-28T19:56:03.323Z,33.35
2022-12-28T19:58:31.516Z,34.28
2022-12-28T20:01:07.286Z,32.08
2022-12-28T20:03:36.937Z,32.50
2022-12-28T20:06:07.066Z,33.85
2022-12-28T20:08:34.043Z,36.97
2022-12-28T20:11:01.711Z,27.98
2022-12-28T20:13:28.620Z,26.35
2022-12-28T20:15:55.390Z,27.83
2022-12-28T20:18:22.256Z,33.05
2022-12-28T20:21:18.000Z,30.20
2022-12-28T20:23:36.308Z,35.75
2022-12-28T20:26:03.105Z,26.73
2022-12-28T20:28:29.919Z,37.55
2022-12-28T20:31:03.474Z,36.65
2022-12-28T20:33:31.194Z,33.55
2022-12-28T20:36:05.699Z,30.67
2022-12-28T20:38:32.581Z,34.38
2022-12-28T20:41:32.489Z,36.63
2022-12-28T20:43:59.788Z,28.73
2022-12-28T20:46:27.094Z,24.88
2022-12-28T20:48:54.183Z,32.78
2022-12-28T20:51:20.920Z,28.85
2022-12-28T20:53:47.687Z,31.27
2022-12-28T20:56:14.423Z,27.70
2022-12-28T20:58:41.153Z,27.25
2022-12-28T21:01:10.634Z,25.63
2022-12-28T21:03:37.693Z,25.67
2022-12-28T21:06:04.837Z,27.65
2022-12-28T21:08:31.978Z,26.40
2022-12-28T21:10:58.811Z,23.27
2022-12-28T21:13:25.780Z,22.08
2022-12-28T21:15:52.688Z,21.10
2022-12-28T21:18:19.897Z,24.17
2022-12-28T21:20:47.752Z,20.38
2022-12-28T21:23:15.205Z,23.65
2022-12-28T21:25:42.325Z,21.00
2022-12-28T21:28:09.448Z,24.95
2022-12-28T21:30:36.335Z,27.10
2022-12-28T21:33:03.208Z,23.73
2022-12-28T21:35:34.064Z,26.38
2022-12-28T21:38:01.709Z,33.35
2022-12-28T21:40:34.546Z,34.42
2022-12-28T21:43:01.232Z,33.33
2022-12-28T21:45:28.098Z,49.95
2022-12-28T21:47:54.927Z,31.80
2022-12-28T21:50:21.710Z,32.28
2022-12-28T21:52:48.657Z,35.20
2022-12-28T21:55:34.233Z,28.60
2022-12-28T21:58:01.124Z,29.08
2022-12-28T22:00:46.227Z,25.88
2022-12-28T22:03:31.426Z,24.58
2022-12-28T22:06:02.703Z,24.45
2022-12-28T22:08:51.461Z,23.23
2022-12-28T22:11:37.507Z,26.48
2022-12-28T22:14:05.192Z,25.23
2022-12-28T22:16:33.302Z,28.95
2022-12-28T22:19:02.579Z,26.05
2022-12-28T22:21:30.134Z,26.92
2022-12-28T22:23:56.872Z,25.92
2022-12-28T22:26:23.604Z,48.03
2022-12-28T22:28:50.319Z,31.27
2022-12-28T22:31:17.135Z,34.70
2022-12-28T22:33:44.070Z,27.17
2022-12-28T22:36:12.614Z,31.92
2022-12-28T22:38:39.362Z,25.67
2022-12-28T22:41:06.267Z,31.35
2022-12-28T22:43:33.147Z,28.35
2022-12-28T22:46:04.016Z,25.85
2022-12-28T22:48:30.921Z,27.10
2022-12-28T22:51:05.166Z,25.00
2022-12-28T22:53:32.663Z,25.60
2022-12-28T22:56:00.275Z,26.08
2022-12-28T22:58:27.276Z,28.67
2022-12-28T23:01:12.945Z,23.45
2022-12-28T23:03:40.721Z,30.40
2022-12-28T23:06:08.436Z,23.55
2022-12-28T23:08:35.196Z,21.05
2022-12-28T23:11:03.926Z,23.23
2022-12-28T23:13:32.863Z,24.33
2022-12-28T23:16:04.363Z,26.27
2022-12-28T23:18:49.933Z,26.73
2022-12-28T23:21:37.292Z,29.58
2022-12-28T23:24:22.848Z,29.25
2022-12-28T23:27:07.950Z,27.85
2022-12-28T23:29:34.688Z,28.90
2022-12-28T23:32:01.467Z,29.23
2022-12-28T23:34:28.172Z,28.33
2022-12-28T23:36:54.914Z,23.85
2022-12-28T23:39:23.456Z,26.85
2022-12-28T23:41:50.914Z,26.17
2022-12-28T23:44:19.014Z,28.27
2022-12-28T23:46:46.145Z,25.40
2022-12-28T23:49:14.080Z,24.58
2022-12-28T23:51:41.366Z,32.58
2022-12-28T23:54:13.743Z,21.08
2022-12-28T23:56:41.099Z,26.98
2022-12-28T23:59:07.906Z,26.77
